sensor_id;sensor_type;location;lat;lon;timestamp;temperature;humidity
51982;DHT22;37998;53.416;6.730;2024-02-21T00:01:04;9.70;99.90
51982;DHT22;37998;53.416;6.730;2024-02-21T00:03:33;9.70;99.90
51982;DHT22;37998;53.416;6.730;2024-02-21T00:05:59;9.60;99.90
51982;DHT22;37998;53.416;6.730;2024-02-21T00:08:25;9.60;99.90
51982;DHT22;37998;53.416;6.730;2024-02-21T00:10:51;9.60;99.90
51982;DHT22;37998;53.416;6.730;2024-02-21T00:13:17;9.60;99.90
51982;DHT22;37998;53.416;6.730;2024-02-21T00:15:43;9.70;99.90
51982;DHT22;37998;53.416;6.730;2024-02-21T00:18:09;9.60;99.90
51982;DHT22;37998;53.416;6.730;2024-02-21T00:20:36;9.50;99.90
51982;DHT22;37998;53.416;6.730;2024-02-21T00:23:02;9.50;99.90
51982;DHT22;37998;53.416;6.730;2024-02-21T00:25:29;9.40;99.90
51982;DHT22;37998;53.416;6.730;2024-02-21T00:27:55;9.40;99.90
51982;DHT22;37998;53.416;6.730;2024-02-21T00:30:21;9.40;99.90
51982;DHT22;37998;53.416;6.730;2024-02-21T00:32:47;9.30;99.90
51982;DHT22;37998;53.416;6.730;2024-02-21T00:35:14;9.40;99.90
51982;DHT22;37998;53.416;6.730;2024-02-21T00:38:04;9.30;99.90
51982;DHT22;37998;53.416;6.730;2024-02-21T00:40:30;9.20;99.90
51982;DHT22;37998;53.416;6.730;2024-02-21T00:42:56;9.30;99.90
51982;DHT22;37998;53.416;6.730;2024-02-21T00:45:22;9.20;99.90
51982;DHT22;37998;53.416;6.730;2024-02-21T00:47:49;9.20;99.90
51982;DHT22;37998;53.416;6.730;2024-02-21T00:50:14;9.20;99.90
51982;DHT22;37998;53.416;6.730;2024-02-21T00:52:40;9.20;99.90
51982;DHT22;37998;53.416;6.730;2024-02-21T00:55:07;9.20;99.90
51982;DHT22;37998;53.416;6.730;2024-02-21T00:57:33;9.20;99.90
51982;DHT22;37998;53.416;6.730;2024-02-21T00:59:59;9.20;99.90
51982;DHT22;37998;53.416;6.730;2024-02-21T01:02:25;9.20;99.90
51982;DHT22;37998;53.416;6.730;2024-02-21T01:04:50;9.10;99.90
51982;DHT22;37998;53.416;6.730;2024-02-21T01:07:16;9.10;99.90
51982;DHT22;37998;53.416;6.730;2024-02-21T01:09:42;9.10;99.90
51982;DHT22;37998;53.416;6.730;2024-02-21T01:12:08;9.10;99.90
51982;DHT22;37998;53.416;6.730;2024-02-21T01:14:34;9.10;99.90
51982;DHT22;37998;53.416;6.730;2024-02-21T01:17:00;9.20;99.90
51982;DHT22;37998;53.416;6.730;2024-02-21T01:19:27;9.20;99.90
51982;DHT22;37998;53.416;6.730;2024-02-21T01:21:52;9.10;99.90
51982;DHT22;37998;53.416;6.730;2024-02-21T01:24:18;9.20;99.90
51982;DHT22;37998;53.416;6.730;2024-02-21T01:26:44;9.10;99.90
51982;DHT22;37998;53.416;6.730;2024-02-21T01:29:10;9.10;99.90
51982;DHT22;37998;53.416;6.730;2024-02-21T01:31:36;9.20;99.90
51982;DHT22;37998;53.416;6.730;2024-02-21T01:34:02;9.20;99.90
51982;DHT22;37998;53.416;6.730;2024-02-21T01:36:28;9.10;99.90
51982;DHT22;37998;53.416;6.730;2024-02-21T01:38:54;9.10;99.90
51982;DHT22;37998;53.416;6.730;2024-02-21T01:41:19;9.10;99.90
51982;DHT22;37998;53.416;6.730;2024-02-21T01:43:45;9.10;99.90
51982;DHT22;37998;53.416;6.730;2024-02-21T01:46:11;9.10;99.90
51982;DHT22;37998;53.416;6.730;2024-02-21T01:48:37;9.10;99.90
51982;DHT22;37998;53.416;6.730;2024-02-21T01:51:04;9.00;99.90
51982;DHT22;37998;53.416;6.730;2024-02-21T01:53:34;9.10;99.90
51982;DHT22;37998;53.416;6.730;2024-02-21T01:56:01;9.10;99.90
51982;DHT22;37998;53.416;6.730;2024-02-21T01:58:28;9.00;99.90
51982;DHT22;37998;53.416;6.730;2024-02-21T02:00:56;9.00;99.90
51982;DHT22;37998;53.416;6.730;2024-02-21T02:03:22;9.00;99.90
51982;DHT22;37998;53.416;6.730;2024-02-21T02:05:50;9.00;99.90
51982;DHT22;37998;53.416;6.730;2024-02-21T02:08:17;9.00;99.90
51982;DHT22;37998;53.416;6.730;2024-02-21T02:10:44;9.10;99.90
51982;DHT22;37998;53.416;6.730;2024-02-21T02:13:10;9.10;99.90
51982;DHT22;37998;53.416;6.730;2024-02-21T02:15:46;9.00;99.90
51982;DHT22;37998;53.416;6.730;2024-02-21T02:18:13;9.00;99.90
51982;DHT22;37998;53.416;6.730;2024-02-21T02:20:39;9.00;99.90
51982;DHT22;37998;53.416;6.730;2024-02-21T02:25:53;9.00;99.90
51982;DHT22;37998;53.416;6.730;2024-02-21T02:28:19;9.10;99.90
51982;DHT22;37998;53.416;6.730;2024-02-21T02:30:45;9.00;99.90
51982;DHT22;37998;53.416;6.730;2024-02-21T02:33:11;9.10;99.90
51982;DHT22;37998;53.416;6.730;2024-02-21T02:35:37;9.10;99.90
51982;DHT22;37998;53.416;6.730;2024-02-21T02:38:03;9.00;99.90
51982;DHT22;37998;53.416;6.730;2024-02-21T02:40:33;9.00;99.90
51982;DHT22;37998;53.416;6.730;2024-02-21T02:42:59;9.00;99.90
51982;DHT22;37998;53.416;6.730;2024-02-21T02:45:26;9.10;99.90
51982;DHT22;37998;53.416;6.730;2024-02-21T02:47:52;9.10;99.90
51982;DHT22;37998;53.416;6.730;2024-02-21T02:50:23;9.00;99.90
51982;DHT22;37998;53.416;6.730;2024-02-21T02:52:49;9.00;99.90
51982;DHT22;37998;53.416;6.730;2024-02-21T02:55:15;9.00;99.90
51982;DHT22;37998;53.416;6.730;2024-02-21T02:57:42;9.00;99.90
51982;DHT22;37998;53.416;6.730;2024-02-21T03:00:12;9.00;99.90
51982;DHT22;37998;53.416;6.730;2024-02-21T03:02:39;9.00;99.90
51982;DHT22;37998;53.416;6.730;2024-02-21T03:05:13;9.00;99.90
51982;DHT22;37998;53.416;6.730;2024-02-21T03:07:43;9.00;99.90
51982;DHT22;37998;53.416;6.730;2024-02-21T03:10:10;9.10;99.90
51982;DHT22;37998;53.416;6.730;2024-02-21T03:12:36;9.00;99.90
51982;DHT22;37998;53.416;6.730;2024-02-21T03:15:03;8.90;99.90
51982;DHT22;37998;53.416;6.730;2024-02-21T03:17:30;8.90;99.90
51982;DHT22;37998;53.416;6.730;2024-02-21T03:19:57;8.90;99.90
51982;DHT22;37998;53.416;6.730;2024-02-21T03:22:23;9.00;99.90
51982;DHT22;37998;53.416;6.730;2024-02-21T03:24:49;9.00;99.90
51982;DHT22;37998;53.416;6.730;2024-02-21T03:27:15;8.90;99.90
51982;DHT22;37998;53.416;6.730;2024-02-21T03:29:41;9.00;99.90
51982;DHT22;37998;53.416;6.730;2024-02-21T03:32:07;8.90;99.90
51982;DHT22;37998;53.416;6.730;2024-02-21T03:34:32;8.90;99.90
51982;DHT22;37998;53.416;6.730;2024-02-21T03:36:58;9.00;99.90
51982;DHT22;37998;53.416;6.730;2024-02-21T03:39:25;8.90;99.90
51982;DHT22;37998;53.416;6.730;2024-02-21T03:41:51;8.90;99.90
51982;DHT22;37998;53.416;6.730;2024-02-21T03:44:17;8.90;99.90
51982;DHT22;37998;53.416;6.730;2024-02-21T03:46:43;8.90;99.90
51982;DHT22;37998;53.416;6.730;2024-02-21T03:49:09;8.90;99.90
51982;DHT22;37998;53.416;6.730;2024-02-21T03:51:35;9.00;99.90
51982;DHT22;37998;53.416;6.730;2024-02-21T03:54:01;8.90;99.90
51982;DHT22;37998;53.416;6.730;2024-02-21T03:56:27;8.90;99.90
51982;DHT22;37998;53.416;6.730;2024-02-21T03:58:53;8.90;99.90
51982;DHT22;37998;53.416;6.730;2024-02-21T04:01:19;9.00;99.90
51982;DHT22;37998;53.416;6.730;2024-02-21T04:03:45;8.90;99.90
51982;DHT22;37998;53.416;6.730;2024-02-21T04:06:11;8.90;99.90
51982;DHT22;37998;53.416;6.730;2024-02-21T04:08:37;8.90;99.90
51982;DHT22;37998;53.416;6.730;2024-02-21T04:11:03;8.90;99.90
51982;DHT22;37998;53.416;6.730;2024-02-21T04:13:29;8.90;99.90
51982;DHT22;37998;53.416;6.730;2024-02-21T04:15:54;8.90;99.90
51982;DHT22;37998;53.416;6.730;2024-02-21T04:18:20;9.00;99.90
51982;DHT22;37998;53.416;6.730;2024-02-21T04:20:47;8.80;99.90
51982;DHT22;37998;53.416;6.730;2024-02-21T04:23:13;9.00;99.90
51982;DHT22;37998;53.416;6.730;2024-02-21T04:25:39;9.00;99.90
51982;DHT22;37998;53.416;6.730;2024-02-21T04:28:05;9.00;99.90
51982;DHT22;37998;53.416;6.730;2024-02-21T04:30:31;8.90;99.90
51982;DHT22;37998;53.416;6.730;2024-02-21T04:32:57;8.90;99.90
51982;DHT22;37998;53.416;6.730;2024-02-21T04:35:23;8.90;99.90
51982;DHT22;37998;53.416;6.730;2024-02-21T04:37:49;9.00;99.90
51982;DHT22;37998;53.416;6.730;2024-02-21T04:40:15;8.90;99.90
51982;DHT22;37998;53.416;6.730;2024-02-21T04:42:43;8.90;99.90
51982;DHT22;37998;53.416;6.730;2024-02-21T04:45:10;8.90;99.90
51982;DHT22;37998;53.416;6.730;2024-02-21T04:47:36;8.90;99.90
51982;DHT22;37998;53.416;6.730;2024-02-21T04:50:01;8.90;99.90
51982;DHT22;37998;53.416;6.730;2024-02-21T04:52:28;8.90;99.90
51982;DHT22;37998;53.416;6.730;2024-02-21T04:54:53;9.00;99.90
51982;DHT22;37998;53.416;6.730;2024-02-21T04:57:19;9.00;99.90
51982;DHT22;37998;53.416;6.730;2024-02-21T04:59:46;8.90;99.90
51982;DHT22;37998;53.416;6.730;2024-02-21T05:02:14;9.00;99.90
51982;DHT22;37998;53.416;6.730;2024-02-21T05:04:39;8.90;99.90
51982;DHT22;37998;53.416;6.730;2024-02-21T05:07:07;8.90;99.90
51982;DHT22;37998;53.416;6.730;2024-02-21T05:09:33;8.90;99.90
51982;DHT22;37998;53.416;6.730;2024-02-21T05:11:59;8.90;99.90
51982;DHT22;37998;53.416;6.730;2024-02-21T05:14:26;8.90;99.90
51982;DHT22;37998;53.416;6.730;2024-02-21T05:16:53;8.90;99.90
51982;DHT22;37998;53.416;6.730;2024-02-21T05:19:18;8.90;99.90
51982;DHT22;37998;53.416;6.730;2024-02-21T05:21:45;9.00;99.90
51982;DHT22;37998;53.416;6.730;2024-02-21T05:24:10;8.90;99.90
51982;DHT22;37998;53.416;6.730;2024-02-21T05:26:37;9.00;99.90
51982;DHT22;37998;53.416;6.730;2024-02-21T05:29:03;9.20;99.90
51982;DHT22;37998;53.416;6.730;2024-02-21T05:34:21;8.90;99.90
51982;DHT22;37998;53.416;6.730;2024-02-21T05:36:47;8.90;99.90
51982;DHT22;37998;53.416;6.730;2024-02-21T05:39:15;9.00;99.90
51982;DHT22;37998;53.416;6.730;2024-02-21T05:41:44;8.90;99.90
51982;DHT22;37998;53.416;6.730;2024-02-21T05:44:11;8.90;99.90
51982;DHT22;37998;53.416;6.730;2024-02-21T05:46:37;8.90;99.90
51982;DHT22;37998;53.416;6.730;2024-02-21T05:49:03;9.00;99.90
51982;DHT22;37998;53.416;6.730;2024-02-21T05:51:33;9.00;99.90
51982;DHT22;37998;53.416;6.730;2024-02-21T05:53:59;9.00;99.90
51982;DHT22;37998;53.416;6.730;2024-02-21T05:56:25;9.10;99.90
51982;DHT22;37998;53.416;6.730;2024-02-21T05:58:51;8.90;99.90
51982;DHT22;37998;53.416;6.730;2024-02-21T06:01:18;8.90;99.90
51982;DHT22;37998;53.416;6.730;2024-02-21T06:03:44;8.90;99.90
51982;DHT22;37998;53.416;6.730;2024-02-21T06:06:10;8.90;99.90
51982;DHT22;37998;53.416;6.730;2024-02-21T06:08:35;8.90;99.90
51982;DHT22;37998;53.416;6.730;2024-02-21T06:11:01;8.90;99.90
51982;DHT22;37998;53.416;6.730;2024-02-21T06:13:27;8.90;99.90
51982;DHT22;37998;53.416;6.730;2024-02-21T06:15:53;8.90;99.90
51982;DHT22;37998;53.416;6.730;2024-02-21T06:18:20;8.90;99.90
51982;DHT22;37998;53.416;6.730;2024-02-21T06:20:46;8.90;99.90
51982;DHT22;37998;53.416;6.730;2024-02-21T06:23:15;8.90;99.90
51982;DHT22;37998;53.416;6.730;2024-02-21T06:25:41;8.90;99.90
51982;DHT22;37998;53.416;6.730;2024-02-21T06:28:07;8.90;99.90
51982;DHT22;37998;53.416;6.730;2024-02-21T06:30:33;8.90;99.90
51982;DHT22;37998;53.416;6.730;2024-02-21T06:32:59;8.80;99.90
51982;DHT22;37998;53.416;6.730;2024-02-21T06:35:25;7.60;99.90
51982;DHT22;37998;53.416;6.730;2024-02-21T06:37:51;8.90;99.90
51982;DHT22;37998;53.416;6.730;2024-02-21T06:40:20;8.80;99.90
51982;DHT22;37998;53.416;6.730;2024-02-21T06:42:46;8.90;99.90
51982;DHT22;37998;53.416;6.730;2024-02-21T06:45:12;8.90;99.90
51982;DHT22;37998;53.416;6.730;2024-02-21T06:47:38;8.90;99.90
51982;DHT22;37998;53.416;6.730;2024-02-21T06:50:04;8.90;99.90
51982;DHT22;37998;53.416;6.730;2024-02-21T06:52:30;8.80;99.90
51982;DHT22;37998;53.416;6.730;2024-02-21T06:54:56;8.90;99.90
51982;DHT22;37998;53.416;6.730;2024-02-21T06:57:23;8.90;99.90
51982;DHT22;37998;53.416;6.730;2024-02-21T06:59:49;8.90;99.90
51982;DHT22;37998;53.416;6.730;2024-02-21T07:02:15;8.90;99.90
51982;DHT22;37998;53.416;6.730;2024-02-21T07:04:41;8.90;99.90
51982;DHT22;37998;53.416;6.730;2024-02-21T07:07:07;8.90;99.90
51982;DHT22;37998;53.416;6.730;2024-02-21T07:09:33;8.90;99.90
51982;DHT22;37998;53.416;6.730;2024-02-21T07:11:59;8.90;99.90
51982;DHT22;37998;53.416;6.730;2024-02-21T07:14:25;8.90;99.90
51982;DHT22;37998;53.416;6.730;2024-02-21T07:16:51;8.90;99.90
51982;DHT22;37998;53.416;6.730;2024-02-21T07:19:17;8.90;99.90
51982;DHT22;37998;53.416;6.730;2024-02-21T07:21:43;8.90;99.90
51982;DHT22;37998;53.416;6.730;2024-02-21T07:24:09;8.90;99.90
51982;DHT22;37998;53.416;6.730;2024-02-21T07:26:35;8.90;99.90
51982;DHT22;37998;53.416;6.730;2024-02-21T07:29:01;8.90;99.90
51982;DHT22;37998;53.416;6.730;2024-02-21T07:31:27;8.90;99.90
51982;DHT22;37998;53.416;6.730;2024-02-21T07:33:53;8.90;99.90
51982;DHT22;37998;53.416;6.730;2024-02-21T07:36:29;8.90;99.90
51982;DHT22;37998;53.416;6.730;2024-02-21T07:38:58;8.90;99.90
51982;DHT22;37998;53.416;6.730;2024-02-21T07:41:25;8.90;99.90
51982;DHT22;37998;53.416;6.730;2024-02-21T07:43:51;9.00;99.90
51982;DHT22;37998;53.416;6.730;2024-02-21T07:46:18;8.90;99.90
51982;DHT22;37998;53.416;6.730;2024-02-21T07:48:45;9.00;99.90
51982;DHT22;37998;53.416;6.730;2024-02-21T07:51:12;8.90;99.90
51982;DHT22;37998;53.416;6.730;2024-02-21T07:53:41;8.90;99.90
51982;DHT22;37998;53.416;6.730;2024-02-21T07:56:14;8.90;99.90
51982;DHT22;37998;53.416;6.730;2024-02-21T07:58:41;8.90;99.90
51982;DHT22;37998;53.416;6.730;2024-02-21T08:01:08;8.90;99.90
51982;DHT22;37998;53.416;6.730;2024-02-21T08:03:34;8.90;99.90
51982;DHT22;37998;53.416;6.730;2024-02-21T08:06:00;8.90;99.90
51982;DHT22;37998;53.416;6.730;2024-02-21T08:08:27;8.90;99.90
51982;DHT22;37998;53.416;6.730;2024-02-21T08:10:53;8.90;99.90
51982;DHT22;37998;53.416;6.730;2024-02-21T08:13:18;8.90;99.90
51982;DHT22;37998;53.416;6.730;2024-02-21T08:15:44;8.90;99.90
51982;DHT22;37998;53.416;6.730;2024-02-21T08:18:10;8.90;99.90
51982;DHT22;37998;53.416;6.730;2024-02-21T08:20:36;9.00;99.90
51982;DHT22;37998;53.416;6.730;2024-02-21T08:23:02;8.90;99.90
51982;DHT22;37998;53.416;6.730;2024-02-21T08:25:28;8.90;99.90
51982;DHT22;37998;53.416;6.730;2024-02-21T08:27:58;8.90;99.90
51982;DHT22;37998;53.416;6.730;2024-02-21T08:30:25;8.90;99.90
51982;DHT22;37998;53.416;6.730;2024-02-21T08:32:51;8.90;99.90
51982;DHT22;37998;53.416;6.730;2024-02-21T08:35:17;8.90;99.90
51982;DHT22;37998;53.416;6.730;2024-02-21T08:37:48;8.90;99.90
51982;DHT22;37998;53.416;6.730;2024-02-21T08:40:14;9.00;99.90
51982;DHT22;37998;53.416;6.730;2024-02-21T08:42:43;8.90;99.90
51982;DHT22;37998;53.416;6.730;2024-02-21T08:45:10;8.90;99.90
51982;DHT22;37998;53.416;6.730;2024-02-21T08:47:36;8.90;99.90
51982;DHT22;37998;53.416;6.730;2024-02-21T08:50:03;8.90;99.90
51982;DHT22;37998;53.416;6.730;2024-02-21T08:52:28;8.90;99.90
51982;DHT22;37998;53.416;6.730;2024-02-21T08:54:54;8.90;99.90
51982;DHT22;37998;53.416;6.730;2024-02-21T08:57:20;9.10;99.90
51982;DHT22;37998;53.416;6.730;2024-02-21T08:59:46;9.00;99.90
51982;DHT22;37998;53.416;6.730;2024-02-21T09:02:13;9.00;99.90
51982;DHT22;37998;53.416;6.730;2024-02-21T09:04:42;8.90;99.90
51982;DHT22;37998;53.416;6.730;2024-02-21T09:07:08;9.00;99.90
51982;DHT22;37998;53.416;6.730;2024-02-21T09:09:33;8.90;99.90
51982;DHT22;37998;53.416;6.730;2024-02-21T09:11:59;8.90;99.90
51982;DHT22;37998;53.416;6.730;2024-02-21T09:14:36;8.90;99.90
51982;DHT22;37998;53.416;6.730;2024-02-21T09:17:04;9.00;99.90
51982;DHT22;37998;53.416;6.730;2024-02-21T09:19:30;8.90;99.90
51982;DHT22;37998;53.416;6.730;2024-02-21T09:21:55;9.00;99.90
51982;DHT22;37998;53.416;6.730;2024-02-21T09:24:21;9.00;99.90
51982;DHT22;37998;53.416;6.730;2024-02-21T09:26:47;9.00;99.90
51982;DHT22;37998;53.416;6.730;2024-02-21T09:29:14;9.00;99.90
51982;DHT22;37998;53.416;6.730;2024-02-21T09:31:41;9.00;99.90
51982;DHT22;37998;53.416;6.730;2024-02-21T09:34:07;9.00;99.90
51982;DHT22;37998;53.416;6.730;2024-02-21T09:36:33;9.00;99.90
51982;DHT22;37998;53.416;6.730;2024-02-21T09:38:59;9.00;99.90
51982;DHT22;37998;53.416;6.730;2024-02-21T09:41:26;9.00;99.90
51982;DHT22;37998;53.416;6.730;2024-02-21T09:43:55;9.00;99.90
51982;DHT22;37998;53.416;6.730;2024-02-21T09:51:47;9.10;99.90
51982;DHT22;37998;53.416;6.730;2024-02-21T09:54:15;9.10;99.90
51982;DHT22;37998;53.416;6.730;2024-02-21T09:56:41;9.10;99.90
51982;DHT22;37998;53.416;6.730;2024-02-21T09:59:08;9.10;99.90
51982;DHT22;37998;53.416;6.730;2024-02-21T10:01:34;9.10;99.90
51982;DHT22;37998;53.416;6.730;2024-02-21T10:04:00;9.10;99.90
51982;DHT22;37998;53.416;6.730;2024-02-21T10:06:26;9.10;99.90
51982;DHT22;37998;53.416;6.730;2024-02-21T10:08:53;9.10;99.90
51982;DHT22;37998;53.416;6.730;2024-02-21T10:11:25;9.20;99.90
51982;DHT22;37998;53.416;6.730;2024-02-21T10:13:51;9.20;99.90
51982;DHT22;37998;53.416;6.730;2024-02-21T10:16:17;9.20;99.90
51982;DHT22;37998;53.416;6.730;2024-02-21T10:18:44;9.10;99.90
51982;DHT22;37998;53.416;6.730;2024-02-21T10:21:10;9.20;99.90
51982;DHT22;37998;53.416;6.730;2024-02-21T10:23:47;9.30;99.90
51982;DHT22;37998;53.416;6.730;2024-02-21T10:26:14;9.30;99.90
51982;DHT22;37998;53.416;6.730;2024-02-21T10:28:41;9.30;99.90
51982;DHT22;37998;53.416;6.730;2024-02-21T10:31:09;9.30;99.90
51982;DHT22;37998;53.416;6.730;2024-02-21T10:33:36;9.30;99.90
51982;DHT22;37998;53.416;6.730;2024-02-21T10:36:10;9.30;99.90
51982;DHT22;37998;53.416;6.730;2024-02-21T10:38:39;9.30;99.90
51982;DHT22;37998;53.416;6.730;2024-02-21T10:41:06;9.30;99.90
51982;DHT22;37998;53.416;6.730;2024-02-21T10:43:39;9.30;99.90
51982;DHT22;37998;53.416;6.730;2024-02-21T10:46:09;9.40;99.90
51982;DHT22;37998;53.416;6.730;2024-02-21T10:48:44;9.40;99.90
51982;DHT22;37998;53.416;6.730;2024-02-21T10:51:18;9.40;99.90
51982;DHT22;37998;53.416;6.730;2024-02-21T10:54:09;9.30;99.90
51982;DHT22;37998;53.416;6.730;2024-02-21T10:56:38;9.40;99.90
51982;DHT22;37998;53.416;6.730;2024-02-21T10:59:07;9.40;99.90
51982;DHT22;37998;53.416;6.730;2024-02-21T11:01:34;9.40;99.90
51982;DHT22;37998;53.416;6.730;2024-02-21T11:04:05;9.40;99.90
51982;DHT22;37998;53.416;6.730;2024-02-21T11:06:32;9.50;99.90
51982;DHT22;37998;53.416;6.730;2024-02-21T11:09:04;9.50;99.90
51982;DHT22;37998;53.416;6.730;2024-02-21T11:14:19;9.50;99.90
51982;DHT22;37998;53.416;6.730;2024-02-21T11:16:46;9.50;99.90
51982;DHT22;37998;53.416;6.730;2024-02-21T11:19:19;9.50;99.90
51982;DHT22;37998;53.416;6.730;2024-02-21T11:21:45;9.50;99.90
51982;DHT22;37998;53.416;6.730;2024-02-21T11:24:11;9.50;99.90
51982;DHT22;37998;53.416;6.730;2024-02-21T11:26:37;9.60;99.90
51982;DHT22;37998;53.416;6.730;2024-02-21T11:29:23;9.60;99.90
51982;DHT22;37998;53.416;6.730;2024-02-21T11:31:49;9.70;99.90
51982;DHT22;37998;53.416;6.730;2024-02-21T11:34:18;9.70;99.90
51982;DHT22;37998;53.416;6.730;2024-02-21T11:36:52;9.70;99.90
51982;DHT22;37998;53.416;6.730;2024-02-21T11:39:26;9.80;99.90
51982;DHT22;37998;53.416;6.730;2024-02-21T11:42:03;9.80;99.90
51982;DHT22;37998;53.416;6.730;2024-02-21T11:44:30;9.80;99.90
51982;DHT22;37998;53.416;6.730;2024-02-21T11:46:56;10.40;99.90
51982;DHT22;37998;53.416;6.730;2024-02-21T11:49:24;9.90;99.90
51982;DHT22;37998;53.416;6.730;2024-02-21T11:51:58;9.90;99.90
51982;DHT22;37998;53.416;6.730;2024-02-21T11:54:24;9.80;99.90
51982;DHT22;37998;53.416;6.730;2024-02-21T11:56:50;9.90;99.90
51982;DHT22;37998;53.416;6.730;2024-02-21T11:59:17;9.90;99.90
51982;DHT22;37998;53.416;6.730;2024-02-21T12:01:43;9.90;99.90
51982;DHT22;37998;53.416;6.730;2024-02-21T12:04:09;8.90;99.90
51982;DHT22;37998;53.416;6.730;2024-02-21T12:06:35;9.90;99.90
51982;DHT22;37998;53.416;6.730;2024-02-21T12:09:01;9.90;99.90
51982;DHT22;37998;53.416;6.730;2024-02-21T12:11:27;9.90;99.90
51982;DHT22;37998;53.416;6.730;2024-02-21T12:16:29;9.90;99.90
51982;DHT22;37998;53.416;6.730;2024-02-21T12:18:57;9.90;99.90
51982;DHT22;37998;53.416;6.730;2024-02-21T12:21:27;9.90;99.90
51982;DHT22;37998;53.416;6.730;2024-02-21T12:23:55;9.80;99.90
51982;DHT22;37998;53.416;6.730;2024-02-21T12:26:22;9.90;99.90
51982;DHT22;37998;53.416;6.730;2024-02-21T12:28:48;9.90;99.90
51982;DHT22;37998;53.416;6.730;2024-02-21T12:31:14;9.90;99.90
51982;DHT22;37998;53.416;6.730;2024-02-21T12:33:43;9.90;99.90
51982;DHT22;37998;53.416;6.730;2024-02-21T12:36:09;9.90;99.90
51982;DHT22;37998;53.416;6.730;2024-02-21T12:38:35;9.90;99.90
51982;DHT22;37998;53.416;6.730;2024-02-21T12:41:02;9.90;99.90
51982;DHT22;37998;53.416;6.730;2024-02-21T12:43:28;9.90;99.90
51982;DHT22;37998;53.416;6.730;2024-02-21T12:45:53;9.90;99.90
51982;DHT22;37998;53.416;6.730;2024-02-21T12:48:19;9.90;99.90
51982;DHT22;37998;53.416;6.730;2024-02-21T12:50:49;9.90;99.90
51982;DHT22;37998;53.416;6.730;2024-02-21T12:53:20;9.90;99.90
51982;DHT22;37998;53.416;6.730;2024-02-21T12:55:48;9.80;99.90
51982;DHT22;37998;53.416;6.730;2024-02-21T12:58:14;9.90;99.90
51982;DHT22;37998;53.416;6.730;2024-02-21T13:00:41;9.90;99.90
51982;DHT22;37998;53.416;6.730;2024-02-21T13:03:07;9.90;99.90
51982;DHT22;37998;53.416;6.730;2024-02-21T13:05:33;9.90;99.90
51982;DHT22;37998;53.416;6.730;2024-02-21T13:07:59;9.90;99.90
51982;DHT22;37998;53.416;6.730;2024-02-21T13:10:25;9.90;99.90
51982;DHT22;37998;53.416;6.730;2024-02-21T13:12:51;10.00;99.90
51982;DHT22;37998;53.416;6.730;2024-02-21T13:15:18;9.90;99.90
51982;DHT22;37998;53.416;6.730;2024-02-21T13:17:44;9.90;99.90
51982;DHT22;37998;53.416;6.730;2024-02-21T13:20:11;9.90;99.90
51982;DHT22;37998;53.416;6.730;2024-02-21T13:22:37;9.90;99.90
51982;DHT22;37998;53.416;6.730;2024-02-21T13:25:04;10.00;99.90
51982;DHT22;37998;53.416;6.730;2024-02-21T13:27:33;9.90;99.90
51982;DHT22;37998;53.416;6.730;2024-02-21T13:29:59;9.90;99.90
51982;DHT22;37998;53.416;6.730;2024-02-21T13:32:28;10.00;99.90
51982;DHT22;37998;53.416;6.730;2024-02-21T13:34:54;9.90;99.90
51982;DHT22;37998;53.416;6.730;2024-02-21T13:37:20;10.00;99.90
51982;DHT22;37998;53.416;6.730;2024-02-21T13:39:47;10.00;99.90
51982;DHT22;37998;53.416;6.730;2024-02-21T13:42:13;10.00;99.90
51982;DHT22;37998;53.416;6.730;2024-02-21T13:44:39;10.10;99.90
51982;DHT22;37998;53.416;6.730;2024-02-21T13:47:05;10.10;99.90
51982;DHT22;37998;53.416;6.730;2024-02-21T13:49:33;10.10;99.90
51982;DHT22;37998;53.416;6.730;2024-02-21T13:52:00;10.20;99.90
51982;DHT22;37998;53.416;6.730;2024-02-21T13:54:26;10.10;99.90
51982;DHT22;37998;53.416;6.730;2024-02-21T13:56:52;10.10;99.90
51982;DHT22;37998;53.416;6.730;2024-02-21T13:59:18;10.10;99.90
51982;DHT22;37998;53.416;6.730;2024-02-21T14:01:44;10.10;99.90
51982;DHT22;37998;53.416;6.730;2024-02-21T14:04:10;10.10;99.90
51982;DHT22;37998;53.416;6.730;2024-02-21T14:06:36;10.10;99.90
51982;DHT22;37998;53.416;6.730;2024-02-21T14:09:02;10.10;99.90
51982;DHT22;37998;53.416;6.730;2024-02-21T14:11:28;10.00;99.90
51982;DHT22;37998;53.416;6.730;2024-02-21T14:13:56;10.00;99.90
51982;DHT22;37998;53.416;6.730;2024-02-21T14:16:23;10.00;99.90
51982;DHT22;37998;53.416;6.730;2024-02-21T14:18:49;10.00;99.90
51982;DHT22;37998;53.416;6.730;2024-02-21T14:21:15;10.00;99.90
51982;DHT22;37998;53.416;6.730;2024-02-21T14:23:40;10.00;99.90
51982;DHT22;37998;53.416;6.730;2024-02-21T14:26:06;10.00;99.90
51982;DHT22;37998;53.416;6.730;2024-02-21T14:28:32;9.90;99.90
51982;DHT22;37998;53.416;6.730;2024-02-21T14:31:01;9.90;99.90
51982;DHT22;37998;53.416;6.730;2024-02-21T14:33:29;9.90;99.90
51982;DHT22;37998;53.416;6.730;2024-02-21T14:35:56;9.90;99.90
51982;DHT22;37998;53.416;6.730;2024-02-21T14:38:22;9.90;99.90
51982;DHT22;37998;53.416;6.730;2024-02-21T14:40:48;9.90;99.90
51982;DHT22;37998;53.416;6.730;2024-02-21T14:43:14;9.80;99.90
51982;DHT22;37998;53.416;6.730;2024-02-21T14:45:40;9.90;99.90
51982;DHT22;37998;53.416;6.730;2024-02-21T14:48:07;9.80;99.90
51982;DHT22;37998;53.416;6.730;2024-02-21T14:50:33;9.80;99.90
51982;DHT22;37998;53.416;6.730;2024-02-21T14:52:59;9.80;99.90
51982;DHT22;37998;53.416;6.730;2024-02-21T14:55:25;9.80;99.90
51982;DHT22;37998;53.416;6.730;2024-02-21T14:57:51;9.80;99.90
51982;DHT22;37998;53.416;6.730;2024-02-21T15:00:17;9.80;99.90
51982;DHT22;37998;53.416;6.730;2024-02-21T15:02:43;9.80;99.90
51982;DHT22;37998;53.416;6.730;2024-02-21T15:05:09;9.70;99.90
51982;DHT22;37998;53.416;6.730;2024-02-21T15:07:36;9.70;99.90
51982;DHT22;37998;53.416;6.730;2024-02-21T15:10:02;9.70;99.90
51982;DHT22;37998;53.416;6.730;2024-02-21T15:12:28;9.70;99.90
51982;DHT22;37998;53.416;6.730;2024-02-21T15:14:54;9.60;99.90
51982;DHT22;37998;53.416;6.730;2024-02-21T15:17:20;9.70;99.90
51982;DHT22;37998;53.416;6.730;2024-02-21T15:19:46;9.60;99.90
51982;DHT22;37998;53.416;6.730;2024-02-21T15:22:13;9.60;99.90
51982;DHT22;37998;53.416;6.730;2024-02-21T15:24:40;9.60;99.90
51982;DHT22;37998;53.416;6.730;2024-02-21T15:27:07;9.60;99.90
51982;DHT22;37998;53.416;6.730;2024-02-21T15:29:36;9.60;99.90
51982;DHT22;37998;53.416;6.730;2024-02-21T15:32:03;9.60;99.90
51982;DHT22;37998;53.416;6.730;2024-02-21T15:34:29;9.60;99.90
51982;DHT22;37998;53.416;6.730;2024-02-21T15:36:55;9.60;99.90
51982;DHT22;37998;53.416;6.730;2024-02-21T15:39:21;9.60;99.90
51982;DHT22;37998;53.416;6.730;2024-02-21T15:41:47;9.60;99.90
51982;DHT22;37998;53.416;6.730;2024-02-21T15:44:13;9.50;99.90
51982;DHT22;37998;53.416;6.730;2024-02-21T15:46:40;9.50;99.90
51982;DHT22;37998;53.416;6.730;2024-02-21T15:49:06;9.50;99.90
51982;DHT22;37998;53.416;6.730;2024-02-21T15:51:33;9.50;99.90
51982;DHT22;37998;53.416;6.730;2024-02-21T15:54:00;9.60;99.90
51982;DHT22;37998;53.416;6.730;2024-02-21T15:56:26;9.50;99.90
51982;DHT22;37998;53.416;6.730;2024-02-21T15:58:53;9.60;99.90